SWR444 EDDL-LSZH
Flight info
| Callsign | SWR444 |
|---|---|
| Flight time | 0h 49m |
| Altitude | 31000 |
| Route | DODEN1T DODEN Y852 TUSUK DCT ULNOK L607 SUNEG T721 LAMGO/N0430F270 T721 RILAX |
| Aircraft | A321/M-SDE3FGHIRWY/LB1 |
Departure
| Time | 2026-05-04 19:37 |
|---|---|
| Airport | Düsseldorf Airport (EDDL) |
Arrival
| Time | 2026-05-04 20:26 |
|---|---|
| Airport | Zürich Airport (LSZH) |
| Time | Latitude | Longitude | Altitude | Speed | Heading |
|---|---|---|---|---|---|
| 2026-05-04 18:29 | 51.28274 | 6.76679 | 122 ft | 0 kts | 225° |
| 2026-05-04 19:08 | 51.28286 | 6.76699 | 122 ft | 4 kts | 231° |
| 2026-05-04 19:08 | 51.28301 | 6.76734 | 122 ft | 4 kts | 246° |
| 2026-05-04 19:09 | 51.28308 | 6.76774 | 124 ft | 4 kts | 273° |
| 2026-05-04 19:09 | 51.28301 | 6.76812 | 124 ft | 4 kts | 317° |
| 2026-05-04 19:09 | 51.28297 | 6.76817 | 124 ft | 0 kts | 322° |
| 2026-05-04 19:11 | 51.28305 | 6.76808 | 125 ft | 4 kts | 322° |
| 2026-05-04 19:12 | 51.28342 | 6.76762 | 124 ft | 8 kts | 322° |
| 2026-05-04 19:12 | 51.28395 | 6.76697 | 122 ft | 9 kts | 322° |
| 2026-05-04 19:12 | 51.28462 | 6.76718 | 124 ft | 11 kts | 53° |
| 2026-05-04 19:13 | 51.28503 | 6.76806 | 122 ft | 9 kts | 53° |
| 2026-05-04 19:13 | 51.28534 | 6.76871 | 125 ft | 6 kts | 53° |
| 2026-05-04 19:13 | 51.28579 | 6.76968 | 126 ft | 16 kts | 53° |
| 2026-05-04 19:13 | 51.28649 | 6.77115 | 127 ft | 16 kts | 52° |
| 2026-05-04 19:14 | 51.28713 | 6.77251 | 127 ft | 15 kts | 53° |
| 2026-05-04 19:14 | 51.28772 | 6.77373 | 127 ft | 13 kts | 52° |
| 2026-05-04 19:14 | 51.28824 | 6.77482 | 128 ft | 12 kts | 52° |
| 2026-05-04 19:14 | 51.28881 | 6.77603 | 128 ft | 18 kts | 53° |
| 2026-05-04 19:15 | 51.28960 | 6.77767 | 129 ft | 14 kts | 51° |
| 2026-05-04 19:15 | 51.29040 | 6.77933 | 127 ft | 23 kts | 53° |
| 2026-05-04 19:15 | 51.29125 | 6.78109 | 133 ft | 15 kts | 53° |
| 2026-05-04 19:15 | 51.29173 | 6.78201 | 136 ft | 6 kts | 35° |
| 2026-05-04 19:16 | 51.29179 | 6.78206 | 136 ft | 1 kts | 27° |
| 2026-05-04 19:16 | 51.29219 | 6.78216 | 137 ft | 0 kts | 353° |
| 2026-05-04 19:27 | 51.29235 | 6.78210 | 137 ft | 8 kts | 342° |
| 2026-05-04 19:28 | 51.29257 | 6.78191 | 137 ft | 0 kts | 326° |
| 2026-05-04 19:35 | 51.29269 | 6.78178 | 138 ft | 8 kts | 324° |
| 2026-05-04 19:35 | 51.29326 | 6.78071 | 140 ft | 12 kts | 257° |
| 2026-05-04 19:36 | 51.29312 | 6.78033 | 139 ft | 0 kts | 233° |
| 2026-05-04 19:36 | 51.29300 | 6.78007 | 138 ft | 14 kts | 233° |
| 2026-05-04 19:36 | 51.29070 | 6.77526 | 126 ft | 91 kts | 233° |
| 2026-05-04 19:36 | 51.28553 | 6.76466 | 125 ft | 147 kts | 232° |
| 2026-05-04 19:37 | 51.27907 | 6.75099 | 422 ft | 164 kts | 230° |
| 2026-05-04 19:37 | 51.27234 | 6.73644 | 1158 ft | 162 kts | 232° |
| 2026-05-04 19:37 | 51.26551 | 6.72169 | 1641 ft | 171 kts | 231° |
| 2026-05-04 19:37 | 51.25797 | 6.70552 | 1821 ft | 192 kts | 231° |
| 2026-05-04 19:38 | 51.24954 | 6.68747 | 1984 ft | 215 kts | 232° |
| 2026-05-04 19:38 | 51.24007 | 6.66718 | 2167 ft | 240 kts | 232° |
| 2026-05-04 19:38 | 51.22893 | 6.64618 | 2683 ft | 252 kts | 217° |
| 2026-05-04 19:38 | 51.21281 | 6.63578 | 3388 ft | 256 kts | 184° |
| 2026-05-04 19:39 | 51.19493 | 6.63739 | 4147 ft | 259 kts | 175° |
| 2026-05-04 19:39 | 51.17689 | 6.64032 | 4919 ft | 262 kts | 174° |
| 2026-05-04 19:39 | 51.15894 | 6.64341 | 5643 ft | 265 kts | 172° |
| 2026-05-04 19:39 | 51.14169 | 6.65364 | 6330 ft | 271 kts | 143° |
| 2026-05-04 19:40 | 51.13078 | 6.67809 | 7087 ft | 278 kts | 110° |
| 2026-05-04 19:40 | 51.12834 | 6.70899 | 7798 ft | 285 kts | 94° |
| 2026-05-04 19:40 | 51.12915 | 6.74077 | 8498 ft | 290 kts | 89° |
| 2026-05-04 19:40 | 51.13106 | 6.77292 | 9181 ft | 293 kts | 87° |
| 2026-05-04 19:41 | 51.13321 | 6.80551 | 9785 ft | 298 kts | 88° |
| 2026-05-04 19:41 | 51.13520 | 6.83849 | 10215 ft | 306 kts | 88° |
| 2026-05-04 19:41 | 51.13699 | 6.87353 | 10334 ft | 327 kts | 88° |
| 2026-05-04 19:41 | 51.13860 | 6.91001 | 10457 ft | 346 kts | 89° |
| 2026-05-04 19:42 | 51.14016 | 6.95004 | 10593 ft | 364 kts | 89° |
| 2026-05-04 19:42 | 51.14160 | 6.99074 | 10985 ft | 372 kts | 89° |
| 2026-05-04 19:42 | 51.14305 | 7.03208 | 11521 ft | 375 kts | 89° |
| 2026-05-04 19:42 | 51.14450 | 7.07383 | 12080 ft | 378 kts | 89° |
| 2026-05-04 19:43 | 51.14596 | 7.11577 | 12637 ft | 381 kts | 89° |
| 2026-05-04 19:43 | 51.14742 | 7.15819 | 13152 ft | 385 kts | 89° |
| 2026-05-04 19:43 | 51.14888 | 7.20111 | 13658 ft | 390 kts | 89° |
| 2026-05-04 19:43 | 51.15031 | 7.24376 | 14137 ft | 393 kts | 89° |
| 2026-05-04 19:44 | 51.15177 | 7.28748 | 14643 ft | 396 kts | 89° |
| 2026-05-04 19:44 | 51.15218 | 7.33122 | 15135 ft | 396 kts | 98° |
| 2026-05-04 19:44 | 51.14562 | 7.37342 | 15606 ft | 393 kts | 116° |
| 2026-05-04 19:44 | 51.13159 | 7.41059 | 16043 ft | 390 kts | 129° |
| 2026-05-04 19:45 | 51.11380 | 7.44314 | 16466 ft | 393 kts | 130° |
| 2026-05-04 19:45 | 51.09649 | 7.47714 | 16847 ft | 396 kts | 127° |
| 2026-05-04 19:45 | 51.07989 | 7.51217 | 17235 ft | 399 kts | 126° |
| 2026-05-04 19:45 | 51.06367 | 7.54800 | 17650 ft | 401 kts | 125° |
| 2026-05-04 19:46 | 51.04964 | 7.57880 | 17949 ft | 404 kts | 126° |
| 2026-05-04 19:46 | 51.03261 | 7.61458 | 18150 ft | 411 kts | 127° |
| 2026-05-04 19:46 | 51.01512 | 7.65068 | 18567 ft | 409 kts | 128° |
| 2026-05-04 19:46 | 50.99714 | 7.68538 | 19049 ft | 407 kts | 130° |
| 2026-05-04 19:47 | 50.97829 | 7.71906 | 19358 ft | 409 kts | 135° |
| 2026-05-04 19:47 | 50.95653 | 7.74835 | 19690 ft | 408 kts | 138° |
| 2026-05-04 19:47 | 50.93439 | 7.77569 | 20197 ft | 403 kts | 147° |
| 2026-05-04 19:47 | 50.91047 | 7.79903 | 20508 ft | 405 kts | 149° |
| 2026-05-04 19:48 | 50.88597 | 7.82119 | 20853 ft | 407 kts | 150° |
| 2026-05-04 19:48 | 50.86150 | 7.84425 | 21223 ft | 409 kts | 148° |
| 2026-05-04 19:48 | 50.83773 | 7.86791 | 21548 ft | 413 kts | 148° |
| 2026-05-04 19:48 | 50.81285 | 7.89232 | 21827 ft | 417 kts | 148° |
| 2026-05-04 19:49 | 50.78828 | 7.91580 | 22124 ft | 420 kts | 149° |
| 2026-05-04 19:49 | 50.76298 | 7.93937 | 22454 ft | 423 kts | 150° |
| 2026-05-04 19:49 | 50.73744 | 7.96265 | 22795 ft | 425 kts | 150° |
| 2026-05-04 19:49 | 50.71103 | 7.98385 | 22996 ft | 427 kts | 159° |
| 2026-05-04 19:50 | 50.68284 | 7.99875 | 23376 ft | 426 kts | 162° |
| 2026-05-04 19:50 | 50.65457 | 8.01201 | 23816 ft | 424 kts | 164° |
| 2026-05-04 19:50 | 50.62606 | 8.02436 | 24217 ft | 422 kts | 165° |
| 2026-05-04 19:50 | 50.60422 | 8.03322 | 24543 ft | 420 kts | 165° |
| 2026-05-04 19:51 | 50.57653 | 8.04483 | 24958 ft | 419 kts | 165° |
| 2026-05-04 19:51 | 50.54850 | 8.05712 | 25350 ft | 419 kts | 164° |
| 2026-05-04 19:51 | 50.52049 | 8.06993 | 25681 ft | 420 kts | 163° |
| 2026-05-04 19:51 | 50.49199 | 8.08347 | 25493 ft | 431 kts | 163° |
| 2026-05-04 19:52 | 50.46313 | 8.09769 | 25631 ft | 437 kts | 162° |
| 2026-05-04 19:52 | 50.43402 | 8.11258 | 25790 ft | 441 kts | 162° |
| 2026-05-04 19:52 | 50.40464 | 8.12698 | 26078 ft | 441 kts | 163° |
| 2026-05-04 19:52 | 50.37507 | 8.14003 | 26407 ft | 440 kts | 165° |
| 2026-05-04 19:53 | 50.34586 | 8.15152 | 26737 ft | 438 kts | 167° |
| 2026-05-04 19:53 | 50.31615 | 8.16181 | 27101 ft | 436 kts | 168° |
| 2026-05-04 19:53 | 50.28737 | 8.17217 | 27292 ft | 439 kts | 166° |
| 2026-05-04 19:53 | 50.25785 | 8.18502 | 27480 ft | 442 kts | 163° |
| 2026-05-04 19:54 | 50.22858 | 8.20004 | 27694 ft | 444 kts | 161° |
| 2026-05-04 19:54 | 50.19936 | 8.21602 | 27805 ft | 448 kts | 161° |
| 2026-05-04 19:54 | 50.16968 | 8.23193 | 27909 ft | 450 kts | 162° |
| 2026-05-04 19:54 | 50.13988 | 8.24693 | 28070 ft | 450 kts | 163° |
| 2026-05-04 19:55 | 50.10978 | 8.26002 | 28261 ft | 449 kts | 166° |
| 2026-05-04 19:55 | 50.07937 | 8.27060 | 28518 ft | 447 kts | 168° |
| 2026-05-04 19:55 | 50.04900 | 8.28067 | 28909 ft | 443 kts | 168° |
| 2026-05-04 19:55 | 50.01903 | 8.29082 | 29302 ft | 439 kts | 168° |
| 2026-05-04 19:56 | 49.98970 | 8.30187 | 29535 ft | 441 kts | 165° |
| 2026-05-04 19:56 | 49.95980 | 8.31533 | 29734 ft | 442 kts | 163° |
| 2026-05-04 19:56 | 49.93102 | 8.33037 | 29950 ft | 444 kts | 161° |
| 2026-05-04 19:56 | 49.90283 | 8.34703 | 30156 ft | 444 kts | 160° |
| 2026-05-04 19:57 | 49.87366 | 8.36267 | 30378 ft | 441 kts | 164° |
| 2026-05-04 19:57 | 49.84417 | 8.37492 | 30631 ft | 437 kts | 167° |
| 2026-05-04 19:57 | 49.81453 | 8.38538 | 30844 ft | 436 kts | 167° |
| 2026-05-04 19:58 | 49.75596 | 8.40738 | 31000 ft | 430 kts | 166° |
| 2026-05-04 19:58 | 49.69866 | 8.43215 | 30969 ft | 426 kts | 164° |
| 2026-05-04 19:59 | 49.64199 | 8.45968 | 31036 ft | 426 kts | 162° |
| 2026-05-04 19:59 | 49.58562 | 8.48753 | 30994 ft | 425 kts | 165° |
| 2026-05-04 20:00 | 49.52809 | 8.50778 | 31180 ft | 422 kts | 170° |
| 2026-05-04 20:00 | 49.49908 | 8.51630 | 31022 ft | 422 kts | 168° |
| 2026-05-04 20:00 | 49.47052 | 8.52648 | 30878 ft | 423 kts | 166° |
| 2026-05-04 20:01 | 49.41402 | 8.55241 | 30846 ft | 423 kts | 162° |
| 2026-05-04 20:01 | 49.38623 | 8.56695 | 31031 ft | 423 kts | 161° |
| 2026-05-04 20:01 | 49.35840 | 8.58199 | 31154 ft | 423 kts | 161° |
| 2026-05-04 20:02 | 49.30242 | 8.61006 | 30866 ft | 421 kts | 166° |
| 2026-05-04 20:02 | 49.24575 | 8.63034 | 31069 ft | 420 kts | 169° |
| 2026-05-04 20:03 | 49.18858 | 8.64833 | 30967 ft | 419 kts | 166° |
| 2026-05-04 20:03 | 49.16051 | 8.66032 | 30718 ft | 419 kts | 163° |
| 2026-05-04 20:03 | 49.13277 | 8.67385 | 30745 ft | 419 kts | 162° |
| 2026-05-04 20:03 | 49.10505 | 8.68806 | 30892 ft | 420 kts | 161° |
| 2026-05-04 20:04 | 49.07734 | 8.70249 | 31035 ft | 421 kts | 162° |
| 2026-05-04 20:04 | 49.02137 | 8.72825 | 31132 ft | 420 kts | 165° |
| 2026-05-04 20:05 | 48.97447 | 8.74641 | 31171 ft | 419 kts | 166° |
| 2026-05-04 20:05 | 48.91764 | 8.76656 | 31013 ft | 418 kts | 168° |
| 2026-05-04 20:06 | 48.85999 | 8.77138 | 30996 ft | 416 kts | 185° |
| 2026-05-04 20:06 | 48.80311 | 8.75615 | 30999 ft | 413 kts | 188° |
| 2026-05-04 20:07 | 48.74765 | 8.74275 | 31009 ft | 413 kts | 186° |
| 2026-05-04 20:07 | 48.71916 | 8.73673 | 30895 ft | 410 kts | 185° |
| 2026-05-04 20:07 | 48.69045 | 8.73068 | 29427 ft | 423 kts | 186° |
| 2026-05-04 20:07 | 48.66145 | 8.72363 | 28792 ft | 417 kts | 187° |
| 2026-05-04 20:08 | 48.63283 | 8.71605 | 28301 ft | 420 kts | 188° |
| 2026-05-04 20:08 | 48.60397 | 8.70792 | 27859 ft | 423 kts | 189° |
| 2026-05-04 20:08 | 48.57544 | 8.69940 | 27476 ft | 425 kts | 189° |
| 2026-05-04 20:08 | 48.54629 | 8.69021 | 27115 ft | 428 kts | 190° |
| 2026-05-04 20:09 | 48.51682 | 8.68044 | 26780 ft | 429 kts | 191° |
| 2026-05-04 20:09 | 48.48768 | 8.67029 | 26486 ft | 431 kts | 191° |
| 2026-05-04 20:09 | 48.45849 | 8.65965 | 26213 ft | 432 kts | 192° |
| 2026-05-04 20:09 | 48.42942 | 8.65002 | 25875 ft | 433 kts | 188° |
| 2026-05-04 20:10 | 48.39944 | 8.64480 | 25455 ft | 435 kts | 184° |
| 2026-05-04 20:10 | 48.36921 | 8.64179 | 25007 ft | 435 kts | 182° |
| 2026-05-04 20:10 | 48.33918 | 8.63810 | 24565 ft | 434 kts | 186° |
| 2026-05-04 20:10 | 48.30944 | 8.63096 | 24167 ft | 432 kts | 190° |
| 2026-05-04 20:11 | 48.28016 | 8.62088 | 23831 ft | 429 kts | 193° |
| 2026-05-04 20:11 | 48.25138 | 8.60965 | 23505 ft | 428 kts | 193° |
| 2026-05-04 20:11 | 48.22263 | 8.59855 | 23135 ft | 426 kts | 192° |
| 2026-05-04 20:11 | 48.19381 | 8.58852 | 22754 ft | 424 kts | 191° |
| 2026-05-04 20:12 | 48.16498 | 8.57964 | 22396 ft | 422 kts | 189° |
| 2026-05-04 20:12 | 48.13611 | 8.57187 | 22008 ft | 420 kts | 188° |
| 2026-05-04 20:12 | 48.10784 | 8.56559 | 21516 ft | 418 kts | 186° |
| 2026-05-04 20:12 | 48.07911 | 8.55957 | 20760 ft | 414 kts | 188° |
| 2026-05-04 20:13 | 48.05087 | 8.55225 | 20112 ft | 410 kts | 189° |
| 2026-05-04 20:13 | 48.02311 | 8.54441 | 19559 ft | 406 kts | 186° |
| 2026-05-04 20:13 | 47.99503 | 8.54554 | 19044 ft | 404 kts | 168° |
| 2026-05-04 20:13 | 47.96904 | 8.55982 | 18423 ft | 405 kts | 150° |
| 2026-05-04 20:14 | 47.94571 | 8.58359 | 17741 ft | 407 kts | 144° |
| 2026-05-04 20:14 | 47.92270 | 8.60801 | 17176 ft | 406 kts | 145° |
| 2026-05-04 20:14 | 47.89952 | 8.63189 | 16627 ft | 403 kts | 146° |
| 2026-05-04 20:14 | 47.87630 | 8.65546 | 16099 ft | 400 kts | 146° |
| 2026-05-04 20:15 | 47.85333 | 8.67854 | 15369 ft | 398 kts | 146° |
| 2026-05-04 20:15 | 47.83029 | 8.70096 | 14613 ft | 393 kts | 147° |
| 2026-05-04 20:15 | 47.80749 | 8.72322 | 13948 ft | 390 kts | 143° |
| 2026-05-04 20:15 | 47.78744 | 8.74944 | 13311 ft | 387 kts | 136° |
| 2026-05-04 20:16 | 47.76816 | 8.77728 | 12615 ft | 383 kts | 136° |
| 2026-05-04 20:16 | 47.74905 | 8.80465 | 11963 ft | 378 kts | 136° |
| 2026-05-04 20:16 | 47.73037 | 8.83090 | 11612 ft | 355 kts | 137° |
| 2026-05-04 20:16 | 47.71315 | 8.85453 | 11367 ft | 321 kts | 137° |
| 2026-05-04 20:17 | 47.69730 | 8.87571 | 11118 ft | 296 kts | 138° |
| 2026-05-04 20:17 | 47.68214 | 8.89585 | 10611 ft | 289 kts | 137° |
| 2026-05-04 20:17 | 47.66709 | 8.91518 | 9989 ft | 281 kts | 139° |
| 2026-05-04 20:17 | 47.65263 | 8.93391 | 9343 ft | 271 kts | 136° |
| 2026-05-04 20:18 | 47.63908 | 8.95221 | 8645 ft | 264 kts | 135° |
| 2026-05-04 20:18 | 47.62570 | 8.97064 | 7868 ft | 260 kts | 136° |
| 2026-05-04 20:18 | 47.61198 | 8.98778 | 7177 ft | 255 kts | 139° |
| 2026-05-04 20:18 | 47.59789 | 9.00335 | 6532 ft | 250 kts | 142° |
| 2026-05-04 20:19 | 47.58303 | 9.01494 | 6067 ft | 233 kts | 159° |
| 2026-05-04 20:19 | 47.56750 | 9.01743 | 5638 ft | 219 kts | 180° |
| 2026-05-04 20:19 | 47.55295 | 9.01148 | 5164 ft | 226 kts | 202° |
| 2026-05-04 20:19 | 47.54006 | 8.99775 | 5026 ft | 230 kts | 224° |
| 2026-05-04 20:20 | 47.52822 | 8.98125 | 5020 ft | 234 kts | 223° |
| 2026-05-04 20:20 | 47.51633 | 8.96498 | 5000 ft | 232 kts | 223° |
| 2026-05-04 20:20 | 47.50433 | 8.94888 | 4992 ft | 233 kts | 223° |
| 2026-05-04 20:20 | 47.49202 | 8.93372 | 4998 ft | 234 kts | 219° |
| 2026-05-04 20:21 | 47.47931 | 8.91915 | 4996 ft | 225 kts | 218° |
| 2026-05-04 20:21 | 47.46724 | 8.90524 | 5018 ft | 216 kts | 219° |
| 2026-05-04 20:21 | 47.44433 | 8.87709 | 4944 ft | 213 kts | 229° |
| 2026-05-04 20:22 | 47.43727 | 8.85804 | 4926 ft | 213 kts | 256° |
| 2026-05-04 20:22 | 47.43778 | 8.83673 | 4903 ft | 203 kts | 281° |
| 2026-05-04 20:22 | 47.43972 | 8.81656 | 4881 ft | 197 kts | 274° |
| 2026-05-04 20:22 | 47.44042 | 8.79660 | 4763 ft | 192 kts | 271° |
| 2026-05-04 20:23 | 47.44109 | 8.77711 | 4612 ft | 189 kts | 275° |
| 2026-05-04 20:23 | 47.44271 | 8.75786 | 4415 ft | 186 kts | 277° |
| 2026-05-04 20:23 | 47.44429 | 8.73910 | 4144 ft | 184 kts | 277° |
| 2026-05-04 20:23 | 47.44572 | 8.72053 | 3880 ft | 178 kts | 277° |
| 2026-05-04 20:24 | 47.44740 | 8.70299 | 3616 ft | 173 kts | 278° |
| 2026-05-04 20:24 | 47.44861 | 8.68594 | 3414 ft | 165 kts | 271° |
| 2026-05-04 20:24 | 47.44958 | 8.66888 | 3215 ft | 165 kts | 275° |
| 2026-05-04 20:24 | 47.45083 | 8.65237 | 2883 ft | 156 kts | 273° |
| 2026-05-04 20:25 | 47.45199 | 8.63660 | 2477 ft | 157 kts | 274° |
| 2026-05-04 20:25 | 47.45300 | 8.62052 | 2182 ft | 157 kts | 273° |
| 2026-05-04 20:25 | 47.45411 | 8.60495 | 1949 ft | 149 kts | 276° |
| 2026-05-04 20:25 | 47.45518 | 8.59000 | 1729 ft | 147 kts | 274° |
| 2026-05-04 20:26 | 47.45630 | 8.57488 | 1504 ft | 145 kts | 274° |
| 2026-05-04 20:26 | 47.45730 | 8.56058 | 1404 ft | 131 kts | 275° |
| 2026-05-04 20:26 | 47.45770 | 8.55389 | 1396 ft | 18 kts | 276° |
| 2026-05-04 20:26 | 47.45745 | 8.55273 | 1400 ft | 5 kts | 206° |
| 2026-05-04 20:27 | 47.45735 | 8.55275 | 1398 ft | 2 kts | 153° |
| 2026-05-04 20:27 | 47.45714 | 8.55294 | 1403 ft | 8 kts | 152° |
| 2026-05-04 20:27 | 47.45603 | 8.55354 | 1405 ft | 21 kts | 159° |
| 2026-05-04 20:27 | 47.45492 | 8.55431 | 1403 ft | 15 kts | 154° |
| 2026-05-04 20:28 | 47.45403 | 8.55492 | 1402 ft | 14 kts | 155° |
| 2026-05-04 20:28 | 47.45319 | 8.55549 | 1397 ft | 13 kts | 155° |
| 2026-05-04 20:28 | 47.45272 | 8.55639 | 1402 ft | 11 kts | 101° |
| 2026-05-04 20:28 | 47.45277 | 8.55684 | 1401 ft | 1 kts | 35° |
| 2026-05-04 20:29 | 47.45293 | 8.55692 | 1400 ft | 7 kts | 16° |
| 2026-05-04 20:29 | 47.45351 | 8.55702 | 1397 ft | 6 kts | 5° |
| 2026-05-04 20:29 | 47.45355 | 8.55703 | 1397 ft | 0 kts | 6° |